Time;durP1;ratioP1;P1;durP2;ratioP2;P2;SDS_P1;SDS_P2;PMS_P1;PMS_P2;Temp;Humidity;BMP_temperature;BMP_pressure;BME280_temperature;BME280_humidity;BME280_pressure;Samples;Min_cycle;Max_cycle;Signal;HPM_P1;HPM_P2
2024/01/19 00:00:54;;;;;;;9.97;5.47;;;;;;;-144.74;100.00;63161.41;5017289;28;20124;-73
2024/01/19 00:03:19;;;;;;;11.87;5.17;;;;;;;-144.74;100.00;63161.41;5011432;28;20037;-72
2024/01/19 00:05:44;;;;;;;23.57;5.70;;;;;;;-144.74;100.00;63161.41;5009906;28;20037;-72
2024/01/19 00:08:13;;;;;;;18.13;5.53;;;;;;;-144.74;100.00;63161.41;5012895;28;20052;-73
2024/01/19 00:10:38;;;;;;;17.33;5.33;;;;;;;-144.74;100.00;63161.41;5013296;28;20124;-72
2024/01/19 00:13:04;;;;;;;11.53;4.30;;;;;;;-144.74;100.00;63161.41;5012996;28;20164;-73
2024/01/19 00:15:29;;;;;;;21.57;4.77;;;;;;;-144.74;100.00;63161.41;5027869;28;20041;-72
2024/01/19 00:17:54;;;;;;;24.90;4.80;;;;;;;-144.74;100.00;63161.41;5022103;28;20044;-72
2024/01/19 00:20:23;;;;;;;15.83;4.57;;;;;;;-144.74;100.00;63161.41;5018037;28;20115;-73
2024/01/19 00:22:51;;;;;;;16.17;3.90;;;;;;;-144.74;100.00;63161.41;5023208;28;20038;-73
2024/01/19 00:25:16;;;;;;;14.57;4.97;;;;;;;-144.74;100.00;63161.41;4990773;28;20132;-73
2024/01/19 00:27:42;;;;;;;10.40;4.87;;;;;;;-144.74;100.00;63161.41;5019398;28;20116;-73
2024/01/19 00:30:11;;;;;;;18.97;4.87;;;;;;;-144.74;100.00;63161.41;5020179;28;20049;-72
2024/01/19 00:32:42;;;;;;;;;;;;;;;-144.74;100.00;63161.41;5025867;28;20037;-72
2024/01/19 00:35:07;;;;;;;27.30;6.90;;;;;;;-144.74;100.00;63161.41;5019272;28;20407;-73
2024/01/19 00:37:35;;;;;;;19.90;6.03;;;;;;;-144.74;100.00;63161.41;5021814;28;20033;-73
2024/01/19 00:40:11;;;;;;;14.83;5.97;;;;;;;-144.74;100.00;63161.41;5025632;28;20509;-73
2024/01/19 00:42:39;;;;;;;22.70;8.53;;;;;;;-144.74;100.00;63161.41;5022281;28;20057;-73
2024/01/19 00:45:12;;;;;;;13.07;5.90;;;;;;;-144.74;100.00;63161.41;5031607;28;20064;-73
2024/01/19 00:47:38;;;;;;;21.90;5.70;;;;;;;-144.74;100.00;63161.41;5026662;28;20057;-74
2024/01/19 00:50:06;;;;;;;18.53;6.77;;;;;;;-144.74;100.00;63161.41;5021596;28;20045;-72
2024/01/19 00:52:31;;;;;;;12.67;6.17;;;;;;;-144.74;100.00;63161.41;5017932;28;20041;-72
2024/01/19 00:54:57;;;;;;;19.90;7.00;;;;;;;-144.74;100.00;63161.41;5019583;28;20136;-71
2024/01/19 00:57:22;;;;;;;17.33;6.00;;;;;;;-144.74;100.00;63161.41;5022644;28;20065;-73
2024/01/19 00:59:48;;;;;;;18.33;5.53;;;;;;;-144.74;100.00;63161.41;5020622;28;20033;-72
2024/01/19 01:02:13;;;;;;;23.73;6.93;;;;;;;-144.74;100.00;63161.41;5025067;28;20080;-72
2024/01/19 01:04:39;;;;;;;12.80;5.17;;;;;;;-144.74;100.00;63161.41;5010291;28;20057;-72
2024/01/19 01:07:08;;;;;;;15.97;6.17;;;;;;;-144.74;100.00;63161.41;5012428;28;20057;-72
2024/01/19 01:09:34;;;;;;;13.90;4.70;;;;;;;-144.74;100.00;63161.41;5033350;28;20071;-72
2024/01/19 01:12:01;;;;;;;13.87;4.90;;;;;;;-144.74;100.00;63161.41;5034072;28;20064;-72
2024/01/19 01:14:29;;;;;;;16.73;3.60;;;;;;;-144.74;100.00;63161.41;5031792;28;20080;-72
2024/01/19 01:16:54;;;;;;;20.90;3.90;;;;;;;-144.74;100.00;63161.41;5026268;28;20033;-72
2024/01/19 01:19:23;;;;;;;11.20;3.00;;;;;;;-144.74;100.00;63161.41;5023614;28;20094;-72
2024/01/19 01:21:54;;;;;;;14.15;3.40;;;;;;;-144.74;100.00;63161.41;5024744;28;20524;-72
2024/01/19 01:24:22;;;;;;;11.30;2.83;;;;;;;-144.74;100.00;63161.41;5017393;28;20106;-72
2024/01/19 01:26:47;;;;;;;8.27;2.87;;;;;;;-144.74;100.00;63161.41;5023377;28;20155;-72
2024/01/19 01:29:13;;;;;;;10.77;3.53;;;;;;;-144.74;100.00;63161.41;5033372;28;20112;-72
2024/01/19 01:31:38;;;;;;;10.53;2.83;;;;;;;-144.74;100.00;63161.41;5023241;28;20025;-72
2024/01/19 01:34:04;;;;;;;6.57;3.17;;;;;;;-144.74;100.00;63161.41;5021839;28;20036;-72
2024/01/19 01:36:30;;;;;;;14.37;3.83;;;;;;;-144.74;100.00;63161.41;5033820;28;20028;-72
2024/01/19 01:38:55;;;;;;;16.53;4.60;;;;;;;-144.74;100.00;63161.41;5022515;28;20025;-72
2024/01/19 01:41:21;;;;;;;19.67;8.73;;;;;;;-144.74;100.00;63161.41;5023662;28;20049;-72
2024/01/19 01:43:46;;;;;;;25.63;11.83;;;;;;;-144.74;100.00;63161.41;5024700;28;20053;-72
2024/01/19 01:46:12;;;;;;;23.93;9.57;;;;;;;-144.74;100.00;63161.41;5024342;28;20104;-72
2024/01/19 01:48:37;;;;;;;29.93;11.00;;;;;;;-144.74;100.00;63161.41;5013914;28;20507;-72
2024/01/19 01:51:04;;;;;;;22.60;9.23;;;;;;;-144.74;100.00;63161.41;5032102;28;20048;-72
2024/01/19 01:53:30;;;;;;;24.77;9.73;;;;;;;-144.74;100.00;63161.41;5020311;28;20029;-72
2024/01/19 01:55:56;;;;;;;21.20;8.83;;;;;;;-144.74;100.00;63161.41;5033384;28;20030;-72
2024/01/19 01:58:21;;;;;;;17.57;7.57;;;;;;;-144.74;100.00;63161.41;5025155;28;20022;-72
2024/01/19 02:00:48;;;;;;;15.20;6.90;;;;;;;-144.74;100.00;63161.41;5029924;28;20035;-72
2024/01/19 02:03:13;;;;;;;25.37;6.50;;;;;;;-144.74;100.00;63161.41;5029241;28;20024;-71
2024/01/19 02:05:39;;;;;;;18.50;6.57;;;;;;;-144.74;100.00;63161.41;5023459;28;20038;-72
2024/01/19 02:08:04;;;;;;;17.67;6.50;;;;;;;-144.74;100.00;63161.41;5029541;28;20040;-71
2024/01/19 02:10:29;;;;;;;19.93;5.97;;;;;;;-144.74;100.00;63161.41;5023469;28;20033;-71
2024/01/19 02:12:55;;;;;;;18.83;5.37;;;;;;;-144.74;100.00;63161.41;5018461;28;20025;-72
2024/01/19 02:15:22;;;;;;;23.77;5.27;;;;;;;-144.74;100.00;63161.41;5032044;28;20511;-71
2024/01/19 02:17:49;;;;;;;15.57;4.63;;;;;;;-144.74;100.00;63161.41;5026939;28;20041;-71
2024/01/19 02:20:14;;;;;;;15.03;4.77;;;;;;;-144.74;100.00;63161.41;5022592;28;20029;-72
2024/01/19 02:22:45;;;;;;;19.03;4.03;;;;;;;-144.74;100.00;63161.41;5032206;28;20055;-72
2024/01/19 02:25:11;;;;;;;16.15;3.72;;;;;;;-144.74;100.00;63161.41;5032691;28;20033;-71
2024/01/19 02:27:37;;;;;;;9.83;3.30;;;;;;;-144.74;100.00;63161.41;5019503;28;20094;-71
2024/01/19 02:30:06;;;;;;;13.60;4.00;;;;;;;-144.74;100.00;63161.41;5016866;28;20037;-71
2024/01/19 02:32:31;;;;;;;11.80;3.80;;;;;;;-144.74;100.00;63161.41;5028860;28;20503;-72
2024/01/19 02:34:56;;;;;;;21.93;3.87;;;;;;;-144.74;100.00;63161.41;5023218;28;20034;-72
2024/01/19 02:37:23;;;;;;;16.13;3.03;;;;;;;-144.74;100.00;63161.41;5022545;28;20021;-72
2024/01/19 02:39:49;;;;;;;16.30;3.37;;;;;;;-144.74;100.00;63161.41;5025830;28;20050;-72
2024/01/19 02:42:14;;;;;;;15.73;3.70;;;;;;;-144.74;100.00;63161.41;5032544;28;20068;-72
2024/01/19 02:44:39;;;;;;;15.03;2.83;;;;;;;-144.74;100.00;63161.41;5026605;28;20079;-72
2024/01/19 02:47:05;;;;;;;10.43;2.77;;;;;;;-144.74;100.00;63161.41;5015374;28;20052;-72
2024/01/19 02:49:30;;;;;;;8.63;2.43;;;;;;;-144.74;100.00;63161.41;5021410;28;20046;-72
2024/01/19 02:51:55;;;;;;;12.63;2.73;;;;;;;-144.74;100.00;63161.41;5014918;28;20079;-72
2024/01/19 02:54:21;;;;;;;10.37;3.23;;;;;;;-144.74;100.00;63161.41;5008723;28;20072;-72
2024/01/19 02:56:46;;;;;;;10.10;2.87;;;;;;;-144.74;100.00;63161.41;5025644;28;20044;-71
2024/01/19 02:59:11;;;;;;;13.50;3.60;;;;;;;-144.74;100.00;63161.41;5017854;28;20045;-71
2024/01/19 03:01:36;;;;;;;12.47;3.00;;;;;;;-144.74;100.00;63161.41;5017292;28;20117;-71
2024/01/19 03:04:03;;;;;;;12.80;2.90;;;;;;;-144.74;100.00;63161.41;5023102;28;20159;-72
2024/01/19 03:06:28;;;;;;;17.63;3.13;;;;;;;-144.74;100.00;63161.41;5030371;28;20021;-72
2024/01/19 03:08:54;;;;;;;16.13;3.70;;;;;;;-144.74;100.00;63161.41;5029308;28;20037;-72
2024/01/19 03:11:19;;;;;;;24.37;3.70;;;;;;;-144.74;100.00;63161.41;5024535;28;20175;-72
2024/01/19 03:13:44;;;;;;;14.60;3.57;;;;;;;-144.74;100.00;63161.41;5017199;28;20026;-72
2024/01/19 03:16:10;;;;;;;18.87;3.33;;;;;;;-144.74;100.00;63161.41;5020161;28;20017;-72
2024/01/19 03:18:35;;;;;;;14.10;4.10;;;;;;;-144.74;100.00;63161.41;5024606;28;20381;-71
2024/01/19 03:21:00;;;;;;;13.10;3.20;;;;;;;-144.74;100.00;63161.41;5024503;28;20021;-72
2024/01/19 03:23:26;;;;;;;18.03;3.63;;;;;;;-144.74;100.00;63161.41;5027189;28;20079;-71
2024/01/19 03:25:51;;;;;;;15.43;3.10;;;;;;;-144.74;100.00;63161.41;5015338;28;20053;-72
2024/01/19 03:28:16;;;;;;;13.87;2.73;;;;;;;-144.74;100.00;63161.41;5031824;28;20060;-72
2024/01/19 03:30:42;;;;;;;19.57;3.77;;;;;;;-144.74;100.00;63161.41;5018872;28;20033;-72
2024/01/19 03:33:07;;;;;;;11.97;3.27;;;;;;;-144.74;100.00;63161.41;5023957;28;20033;-72
2024/01/19 03:35:33;;;;;;;13.00;3.10;;;;;;;-144.74;100.00;63161.41;5025305;28;20037;-72
2024/01/19 03:37:58;;;;;;;8.43;3.07;;;;;;;-144.74;100.00;63161.41;5021003;28;20026;-72
2024/01/19 03:40:23;;;;;;;14.03;2.87;;;;;;;-144.74;100.00;63161.41;5031396;28;20116;-71
2024/01/19 03:42:49;;;;;;;18.23;4.60;;;;;;;-144.74;100.00;63161.41;5018050;28;20041;-71
2024/01/19 03:45:14;;;;;;;17.43;3.17;;;;;;;-144.74;100.00;63161.41;5013288;28;20554;-71
2024/01/19 03:47:41;;;;;;;10.93;2.90;;;;;;;-144.74;100.00;63161.41;5010903;28;20026;-72
2024/01/19 03:50:08;;;;;;;16.67;3.13;;;;;;;-144.74;100.00;63161.41;5012599;28;20065;-71
2024/01/19 03:52:33;;;;;;;22.60;3.10;;;;;;;-144.74;100.00;63161.41;5014337;28;20021;-71
2024/01/19 03:54:59;;;;;;;14.77;3.37;;;;;;;-144.74;100.00;63161.41;5026305;28;20040;-71
2024/01/19 03:57:24;;;;;;;15.50;3.33;;;;;;;-144.74;100.00;63161.41;5025641;28;20021;-71
2024/01/19 03:59:49;;;;;;;10.50;2.63;;;;;;;-144.74;100.00;63161.41;5014506;28;20033;-71
2024/01/19 04:02:15;;;;;;;20.33;5.30;;;;;;;-144.74;100.00;63161.41;5030967;28;20033;-71
2024/01/19 04:04:40;;;;;;;8.20;2.37;;;;;;;-144.74;100.00;63161.41;5014942;28;20036;-73
2024/01/19 04:07:05;;;;;;;14.80;3.03;;;;;;;-144.74;100.00;63161.41;5027823;28;20030;-72
2024/01/19 04:09:31;;;;;;;15.30;2.33;;;;;;;-144.74;100.00;63161.41;5028221;28;20053;-72
2024/01/19 04:11:56;;;;;;;12.50;2.57;;;;;;;-144.74;100.00;63161.41;5014087;28;20025;-72
2024/01/19 04:14:21;;;;;;;10.53;2.07;;;;;;;-144.74;100.00;63161.41;5016879;28;20026;-72
2024/01/19 04:16:47;;;;;;;13.37;2.73;;;;;;;-144.74;100.00;63161.41;5029432;28;20022;-72
2024/01/19 04:19:12;;;;;;;7.40;2.47;;;;;;;-144.74;100.00;63161.41;5016969;28;20088;-72
2024/01/19 04:21:38;;;;;;;11.13;2.70;;;;;;;-144.74;100.00;63161.41;5033636;28;20018;-72
2024/01/19 04:24:03;;;;;;;20.70;3.50;;;;;;;-144.74;100.00;63161.41;5027784;28;20037;-72
2024/01/19 04:26:29;;;;;;;7.60;2.27;;;;;;;-144.74;100.00;63161.41;5035355;28;20013;-72
2024/01/19 04:28:55;;;;;;;12.13;2.57;;;;;;;-144.74;100.00;63161.41;5034772;28;20033;-72
2024/01/19 04:31:21;;;;;;;13.73;2.73;;;;;;;-144.74;100.00;63161.41;5031223;28;20033;-71
2024/01/19 04:33:46;;;;;;;8.90;2.73;;;;;;;-144.74;100.00;63161.41;5034199;28;20025;-73
2024/01/19 04:36:11;;;;;;;12.20;2.67;;;;;;;-144.74;100.00;63161.41;5035389;28;20030;-73
2024/01/19 04:38:37;;;;;;;8.93;2.37;;;;;;;-144.74;100.00;63161.41;5025638;28;20025;-72
2024/01/19 04:41:03;;;;;;;12.90;2.43;;;;;;;-144.74;100.00;63161.41;5030492;28;20021;-71
2024/01/19 04:43:28;;;;;;;11.50;2.57;;;;;;;-144.74;100.00;63161.41;5023930;28;20018;-71
2024/01/19 04:45:53;;;;;;;9.83;3.10;;;;;;;-144.74;100.00;63161.41;5020479;28;20029;-72
2024/01/19 04:48:19;;;;;;;16.00;3.13;;;;;;;-144.74;100.00;63161.41;5026755;28;20037;-71
2024/01/19 04:50:44;;;;;;;16.43;3.43;;;;;;;-144.74;100.00;63161.41;5019903;28;20056;-71
2024/01/19 04:53:09;;;;;;;9.30;3.40;;;;;;;-144.74;100.00;63161.41;5020159;28;20032;-72
2024/01/19 04:55:35;;;;;;;15.43;3.30;;;;;;;-144.74;100.00;63161.41;5029917;28;20116;-71
2024/01/19 04:58:00;;;;;;;16.07;3.60;;;;;;;-144.74;100.00;63161.41;5026398;28;20104;-71
2024/01/19 05:00:25;;;;;;;25.40;3.30;;;;;;;-144.74;100.00;63161.41;5027635;28;20029;-71
2024/01/19 05:02:51;;;;;;;19.87;3.37;;;;;;;-144.74;100.00;63161.41;5029699;28;20502;-72
2024/01/19 05:05:17;;;;;;;15.40;3.53;;;;;;;-144.74;100.00;63161.41;5026163;28;20026;-72
2024/01/19 05:07:42;;;;;;;11.57;3.00;;;;;;;-144.74;100.00;63161.41;5023595;28;20021;-72
2024/01/19 05:10:09;;;;;;;20.87;2.83;;;;;;;-144.74;100.00;63161.41;5023206;28;20099;-71
2024/01/19 05:12:34;;;;;;;19.80;3.50;;;;;;;-144.74;100.00;63161.41;5023165;28;20024;-72
2024/01/19 05:14:59;;;;;;;14.87;3.07;;;;;;;-144.74;100.00;63161.41;5013084;28;20038;-72
2024/01/19 05:17:25;;;;;;;12.50;2.20;;;;;;;-144.74;100.00;63161.41;5014638;28;20422;-72
2024/01/19 05:19:50;;;;;;;14.30;3.30;;;;;;;-144.74;100.00;63161.41;5016373;28;20037;-72
2024/01/19 05:22:15;;;;;;;17.13;2.93;;;;;;;-144.74;100.00;63161.41;5016992;28;20025;-72
2024/01/19 05:24:41;;;;;;;11.00;2.37;;;;;;;-144.74;100.00;63161.41;5019366;28;20053;-72
2024/01/19 05:27:08;;;;;;;7.07;2.20;;;;;;;-144.74;100.00;63161.41;5034559;28;20025;-72
2024/01/19 05:29:34;;;;;;;7.07;2.33;;;;;;;-144.74;100.00;63161.41;5031805;28;20160;-72
2024/01/19 05:31:59;;;;;;;16.73;3.00;;;;;;;-144.74;100.00;63161.41;5023283;28;20021;-72
2024/01/19 05:34:25;;;;;;;17.20;3.10;;;;;;;-144.74;100.00;63161.41;5027979;28;20040;-72
2024/01/19 05:36:50;;;;;;;13.40;3.03;;;;;;;-144.74;100.00;63161.41;5029345;28;20152;-73
2024/01/19 05:39:15;;;;;;;12.07;3.20;;;;;;;-144.74;100.00;63161.41;5027212;28;20049;-72
2024/01/19 05:41:41;;;;;;;13.63;3.40;;;;;;;-144.74;100.00;63161.41;5027480;28;20033;-72
2024/01/19 05:44:06;;;;;;;11.60;3.10;;;;;;;-144.74;100.00;63161.41;5020402;28;20038;-72
2024/01/19 05:46:31;;;;;;;10.87;2.80;;;;;;;-144.74;100.00;63161.41;5024124;28;20025;-72
2024/01/19 05:48:57;;;;;;;11.23;2.70;;;;;;;-144.74;100.00;63161.41;5034255;28;20064;-72
2024/01/19 05:51:22;;;;;;;21.00;3.63;;;;;;;-144.74;100.00;63161.41;5020225;28;20030;-72
2024/01/19 05:53:47;;;;;;;12.13;2.67;;;;;;;-144.74;100.00;63161.41;5031277;28;20026;-72
2024/01/19 05:56:13;;;;;;;10.57;3.03;;;;;;;-144.74;100.00;63161.41;5023758;28;20021;-72
2024/01/19 05:58:38;;;;;;;6.13;2.73;;;;;;;-144.74;100.00;63161.41;5020065;28;20116;-72
2024/01/19 06:01:04;;;;;;;11.63;2.37;;;;;;;-144.74;100.00;63161.41;5028251;28;20013;-72
2024/01/19 06:03:30;;;;;;;13.27;2.20;;;;;;;-144.74;100.00;63161.41;5022023;28;20116;-72
2024/01/19 06:05:56;;;;;;;12.43;2.70;;;;;;;-144.74;100.00;63161.41;5017586;28;20121;-72
2024/01/19 06:08:22;;;;;;;13.90;2.47;;;;;;;-144.74;100.00;63161.41;5025481;28;20048;-72
2024/01/19 06:10:47;;;;;;;15.60;2.40;;;;;;;-144.74;100.00;63161.41;5027885;28;20034;-72
2024/01/19 06:13:13;;;;;;;14.10;3.00;;;;;;;-144.74;100.00;63161.41;5025562;28;20036;-72
2024/01/19 06:15:38;;;;;;;12.67;2.67;;;;;;;-144.74;100.00;63161.41;5020237;28;20033;-71
2024/01/19 06:18:04;;;;;;;12.20;2.20;;;;;;;-144.74;100.00;63161.41;5020358;28;20164;-72
2024/01/19 06:20:29;;;;;;;12.30;2.90;;;;;;;-144.74;100.00;63161.41;5023212;28;20041;-72
2024/01/19 06:22:54;;;;;;;10.80;3.00;;;;;;;-144.74;100.00;63161.41;5023534;28;20036;-72
2024/01/19 06:25:20;;;;;;;16.27;3.07;;;;;;;-144.74;100.00;63161.41;5023766;28;20525;-72
2024/01/19 06:27:48;;;;;;;17.67;2.77;;;;;;;-144.74;100.00;63161.41;5032432;28;20018;-72
2024/01/19 06:30:13;;;;;;;13.60;2.37;;;;;;;-144.74;100.00;63161.41;5033408;28;20046;-72
2024/01/19 06:32:39;;;;;;;10.07;2.13;;;;;;;-144.74;100.00;63161.41;5029024;28;20033;-73
2024/01/19 06:35:05;;;;;;;16.80;2.67;;;;;;;-144.74;100.00;63161.41;5033105;28;20516;-72
2024/01/19 06:37:30;;;;;;;7.23;1.77;;;;;;;-144.74;100.00;63161.41;5014912;28;20565;-72
2024/01/19 06:39:55;;;;;;;9.03;2.13;;;;;;;-144.74;100.00;63161.41;5021073;28;20091;-72
2024/01/19 06:42:21;;;;;;;8.67;2.23;;;;;;;-144.74;100.00;63161.41;5023302;28;20097;-72
2024/01/19 06:44:46;;;;;;;8.73;2.50;;;;;;;-144.74;100.00;63161.41;5017005;28;20091;-72
2024/01/19 06:47:14;;;;;;;17.17;2.17;;;;;;;-144.74;100.00;63161.41;5014950;28;20060;-73
2024/01/19 06:49:42;;;;;;;7.77;1.60;;;;;;;-144.74;100.00;63161.41;5006277;28;20141;-73
2024/01/19 06:52:11;;;;;;;10.80;1.67;;;;;;;-144.74;100.00;63161.41;5014990;28;20108;-72
2024/01/19 06:54:36;;;;;;;10.07;1.70;;;;;;;-144.74;100.00;63161.41;5026208;28;20040;-72
2024/01/19 06:57:04;;;;;;;7.47;1.97;;;;;;;-144.74;100.00;63161.41;5020268;28;20014;-71
2024/01/19 06:59:29;;;;;;;9.00;2.20;;;;;;;-144.74;100.00;63161.41;5018133;28;20036;-73
2024/01/19 07:01:54;;;;;;;12.93;1.90;;;;;;;-144.74;100.00;63161.41;5025274;28;20037;-72
2024/01/19 07:04:20;;;;;;;9.20;2.30;;;;;;;-144.74;100.00;63161.41;5024093;28;20049;-71
2024/01/19 07:06:45;;;;;;;11.60;2.60;;;;;;;-144.74;100.00;63161.41;5014983;28;20021;-72
2024/01/19 07:09:10;;;;;;;11.60;2.77;;;;;;;-144.74;100.00;63161.41;5024553;28;20500;-72
2024/01/19 07:11:36;;;;;;;9.10;2.10;;;;;;;-144.74;100.00;63161.41;5022894;28;20025;-72
2024/01/19 07:14:01;;;;;;;12.60;2.10;;;;;;;-144.74;100.00;63161.41;5016493;28;20052;-71
2024/01/19 07:16:26;;;;;;;8.43;2.43;;;;;;;-144.74;100.00;63161.41;5019362;28;20025;-71
2024/01/19 07:18:52;;;;;;;9.33;2.57;;;;;;;-144.74;100.00;63161.41;5025172;28;20116;-72
2024/01/19 07:21:17;;;;;;;13.30;2.10;;;;;;;-144.74;100.00;63161.41;5031659;23;20060;-74
2024/01/19 07:23:43;;;;;;;14.43;3.10;;;;;;;-144.74;100.00;63161.41;5021519;28;20021;-72
2024/01/19 07:26:11;;;;;;;10.43;3.20;;;;;;;-144.74;100.00;63161.41;4999967;28;20120;-71
2024/01/19 07:28:39;;;;;;;8.60;2.93;;;;;;;-144.74;100.00;63161.41;5004634;28;20034;-73
2024/01/19 07:31:04;;;;;;;6.60;2.60;;;;;;;-144.74;100.00;63161.41;5000166;28;20018;-71
2024/01/19 07:33:29;;;;;;;15.57;3.10;;;;;;;-144.74;100.00;63161.41;5001486;28;20395;-72
2024/01/19 07:35:58;;;;;;;9.73;3.03;;;;;;;-144.74;100.00;63161.41;4980524;28;20017;-72
2024/01/19 07:38:23;;;;;;;18.30;3.40;;;;;;;-144.74;100.00;63161.41;4985022;28;20036;-71
2024/01/19 07:40:49;;;;;;;14.57;3.03;;;;;;;-144.74;100.00;63161.41;5007413;28;20033;-67
2024/01/19 07:43:14;;;;;;;14.03;3.03;;;;;;;-144.74;100.00;63161.41;5014766;28;20047;-68
2024/01/19 07:45:39;;;;;;;11.20;3.07;;;;;;;-144.74;100.00;63161.41;5031903;28;20037;-68
2024/01/19 07:48:05;;;;;;;17.83;2.80;;;;;;;-144.74;100.00;63161.41;5015296;28;20030;-67
2024/01/19 07:50:30;;;;;;;17.97;3.10;;;;;;;-144.74;100.00;63161.41;5015571;28;20037;-68
2024/01/19 07:52:55;;;;;;;15.03;3.33;;;;;;;-144.74;100.00;63161.41;4994936;28;20176;-68
2024/01/19 07:55:21;;;;;;;12.20;3.43;;;;;;;-144.74;100.00;63161.41;5005305;28;20053;-70
2024/01/19 07:57:46;;;;;;;20.10;3.40;;;;;;;-144.74;100.00;63161.41;5007969;28;20025;-68
2024/01/19 08:00:12;;;;;;;22.27;3.17;;;;;;;-144.74;100.00;63161.41;5021188;28;20065;-68
2024/01/19 08:02:37;;;;;;;13.67;3.33;;;;;;;-144.74;100.00;63161.41;5025006;28;20025;-70
2024/01/19 08:05:03;;;;;;;12.40;3.27;;;;;;;-144.74;100.00;63161.41;5036098;28;20037;-68
2024/01/19 08:07:28;;;;;;;17.60;3.03;;;;;;;-144.74;100.00;63161.41;5012110;28;20490;-69
2024/01/19 08:09:54;;;;;;;54.97;5.20;;;;;;;-144.74;100.00;63161.41;5002241;28;20041;-68
2024/01/19 08:12:19;;;;;;;15.73;3.23;;;;;;;-144.74;100.00;63161.41;5012037;28;20075;-68
2024/01/19 08:14:44;;;;;;;13.67;3.80;;;;;;;-144.74;100.00;63161.41;5011689;28;20034;-68
2024/01/19 08:17:10;;;;;;;15.80;4.27;;;;;;;-144.74;100.00;63161.41;5029471;28;20048;-68
2024/01/19 08:19:35;;;;;;;23.67;5.90;;;;;;;-144.74;100.00;63161.41;5011072;28;20412;-70
2024/01/19 08:22:00;;;;;;;25.33;5.20;;;;;;;-144.74;100.00;63161.41;5029433;28;20037;-68
2024/01/19 08:24:26;;;;;;;18.00;4.80;;;;;;;-144.74;100.00;63161.41;5011603;28;20040;-69
2024/01/19 08:26:51;;;;;;;11.90;4.13;;;;;;;-144.74;100.00;63161.41;5012256;28;20083;-70
2024/01/19 08:29:17;;;;;;;20.23;3.93;;;;;;;-144.74;100.00;63161.41;5016900;28;20042;-69
2024/01/19 08:31:43;;;;;;;10.97;3.50;;;;;;;-144.74;100.00;63161.41;4996928;28;20044;-70
2024/01/19 08:34:12;;;;;;;22.77;4.17;;;;;;;-144.74;100.00;63161.41;5029168;28;20052;-68
2024/01/19 08:36:41;;;;;;;13.87;4.10;;;;;;;-144.74;100.00;63161.41;5011901;28;20024;-68
2024/01/19 08:39:07;;;;;;;18.67;4.13;;;;;;;-144.74;100.00;63161.41;5011735;28;20026;-70
2024/01/19 08:41:40;;;;;;;32.17;3.63;;;;;;;-144.74;100.00;63161.41;5011435;28;20017;-69
2024/01/19 08:44:05;;;;;;;34.00;3.83;;;;;;;-144.74;100.00;63161.41;5028656;28;20040;-69
2024/01/19 08:46:30;;;;;;;13.03;3.33;;;;;;;-144.74;100.00;63161.41;5011877;28;20389;-68
2024/01/19 08:48:56;;;;;;;20.43;4.10;;;;;;;-144.74;100.00;63161.41;5011119;28;20109;-69
2024/01/19 08:51:22;;;;;;;19.70;4.50;;;;;;;-144.74;100.00;63161.41;5012237;28;20168;-69
2024/01/19 08:53:47;;;;;;;25.30;4.23;;;;;;;-144.74;100.00;63161.41;5011888;28;20056;-68
2024/01/19 08:56:18;;;;;;;23.40;4.03;;;;;;;-144.74;100.00;63161.41;5011812;28;20024;-68
2024/01/19 08:58:44;;;;;;;21.70;3.35;;;;;;;-144.74;100.00;63161.41;5011683;28;20026;-69
2024/01/19 09:01:16;;;;;;;24.60;4.00;;;;;;;-144.74;100.00;63161.41;5011426;28;20025;-68
2024/01/19 09:03:41;;;;;;;23.87;3.90;;;;;;;-144.74;100.00;63161.41;5010920;28;20044;-68
2024/01/19 09:06:06;;;;;;;22.30;4.60;;;;;;;-144.74;100.00;63161.41;5031652;28;20022;-68
2024/01/19 09:08:32;;;;;;;30.60;5.13;;;;;;;-144.74;100.00;63161.41;5014522;28;20120;-68
2024/01/19 09:10:57;;;;;;;18.33;3.50;;;;;;;-144.74;100.00;63161.41;5014927;28;20089;-68
2024/01/19 09:13:22;;;;;;;20.00;3.57;;;;;;;-144.74;100.00;63161.41;5014981;28;20036;-68
2024/01/19 09:15:48;;;;;;;22.23;3.73;;;;;;;-144.74;100.00;63161.41;5014851;28;20061;-68
2024/01/19 09:18:13;;;;;;;28.40;3.70;;;;;;;-144.74;100.00;63161.41;5015144;28;20112;-68
2024/01/19 09:20:39;;;;;;;16.73;3.17;;;;;;;-144.74;100.00;63161.41;5014103;28;20048;-68
2024/01/19 09:23:04;;;;;;;21.53;2.90;;;;;;;-144.74;100.00;63161.41;5014961;28;20036;-68
2024/01/19 09:25:30;;;;;;;15.23;3.07;;;;;;;-144.74;100.00;63161.41;5014403;28;20042;-67
2024/01/19 09:27:57;;;;;;;13.77;3.37;;;;;;;-144.74;100.00;63161.41;5015423;28;20036;-67
2024/01/19 09:30:22;;;;;;;10.83;2.63;;;;;;;-144.74;100.00;63161.41;5013862;28;20056;-68
2024/01/19 09:32:47;;;;;;;27.97;3.60;;;;;;;-144.74;100.00;63161.41;5014714;28;20507;-69
2024/01/19 09:35:13;;;;;;;25.00;3.87;;;;;;;-144.74;100.00;63161.41;5032292;28;20030;-68
2024/01/19 09:37:38;;;;;;;31.10;3.43;;;;;;;-144.74;100.00;63161.41;5014947;28;20021;-68
2024/01/19 09:40:04;;;;;;;34.73;3.90;;;;;;;-144.74;100.00;63161.41;5014847;28;20079;-69
2024/01/19 09:42:33;;;;;;;26.20;4.50;;;;;;;-144.74;100.00;63161.41;5032339;28;20025;-69
2024/01/19 09:45:04;;;;;;;13.07;3.57;;;;;;;-144.74;100.00;63161.41;5014166;28;20029;-69
2024/01/19 09:47:40;;;;;;;20.83;3.47;;;;;;;-144.74;100.00;63161.41;5015083;28;20022;-68
2024/01/19 09:50:10;;;;;;;25.57;4.20;;;;;;;-144.74;100.00;63161.41;5014471;28;20132;-68
2024/01/19 09:52:42;;;;;;;21.80;4.00;;;;;;;-144.74;100.00;63161.41;5032051;28;20033;-69
2024/01/19 09:55:11;;;;;;;18.67;3.77;;;;;;;-144.74;100.00;63161.41;5031742;28;20036;-69
2024/01/19 09:57:44;;;;;;;17.43;3.00;;;;;;;-144.74;100.00;63161.41;5015285;28;20116;-71
2024/01/19 10:00:11;;;;;;;17.23;3.60;;;;;;;-144.74;100.00;63161.41;5032042;28;20029;-69
2024/01/19 10:02:36;;;;;;;22.10;3.60;;;;;;;-144.74;100.00;63161.41;5014544;28;20025;-69
2024/01/19 10:05:02;;;;;;;20.02;3.83;;;;;;;-144.74;100.00;63161.41;5014540;28;20091;-69
2024/01/19 10:07:28;;;;;;;12.75;3.13;;;;;;;-144.74;100.00;63161.41;5014564;28;20018;-70
2024/01/19 10:09:55;;;;;;;20.77;4.00;;;;;;;-144.74;100.00;63161.41;5031731;28;20120;-71
2024/01/19 10:12:23;;;;;;;23.07;4.53;;;;;;;-144.74;100.00;63161.41;5032359;28;20034;-70
2024/01/19 10:14:49;;;;;;;20.63;3.88;;;;;;;-144.74;100.00;63161.41;5013735;28;20033;-70
2024/01/19 10:17:16;;;;;;;31.20;3.63;;;;;;;-144.74;100.00;63161.41;5031810;28;20028;-69
2024/01/19 10:19:42;;;;;;;17.60;3.93;;;;;;;-144.74;100.00;63161.41;5014055;28;20045;-69
2024/01/19 10:22:25;;;;;;;27.83;4.27;;;;;;;-144.74;100.00;63161.41;5014185;28;20030;-68
2024/01/19 10:25:04;;;;;;;25.80;3.55;;;;;;;-144.74;100.00;63161.41;5013737;28;20033;-68
2024/01/19 10:27:46;;;;;;;22.83;4.67;;;;;;;-144.74;100.00;63161.41;4994441;28;20489;-69
2024/01/19 10:30:13;;;;;;;22.35;3.85;;;;;;;-144.74;100.00;63161.41;5013645;28;20042;-69
2024/01/19 10:32:41;;;;;;;15.30;3.10;;;;;;;-144.74;100.00;63161.41;5031285;28;20033;-68
2024/01/19 10:35:17;;;;;;;13.53;3.67;;;;;;;-144.74;100.00;63161.41;5014167;28;20144;-68
2024/01/19 10:37:44;;;;;;;21.43;3.43;;;;;;;-144.74;100.00;63161.41;5014725;28;20021;-68
2024/01/19 10:40:20;;;;;;;26.30;5.20;;;;;;;-144.74;100.00;63161.41;5013510;28;20064;-69
2024/01/19 10:42:48;;;;;;;23.33;3.60;;;;;;;-144.74;100.00;63161.41;5032025;28;20028;-69
2024/01/19 10:45:18;;;;;;;23.65;4.88;;;;;;;-144.74;100.00;63161.41;5013573;28;20044;-69
2024/01/19 10:47:45;;;;;;;20.55;4.28;;;;;;;-144.74;100.00;63161.41;5031513;28;20017;-69
2024/01/19 10:50:14;;;;;;;19.02;3.03;;;;;;;-144.74;100.00;63161.41;5030531;28;20037;-69
2024/01/19 10:52:42;;;;;;;14.02;3.38;;;;;;;-144.74;100.00;63161.41;5013968;28;20061;-69
2024/01/19 10:55:07;;;;;;;19.15;4.28;;;;;;;-144.74;100.00;63161.41;5013603;28;20053;-69
2024/01/19 10:57:32;;;;;;;24.55;4.53;;;;;;;-144.74;100.00;63161.41;5026370;28;20052;-69